createdAt,value
2023-06-30T00:00:27.383Z,96.36
2023-06-30T00:01:27.473Z,96.36
2023-06-30T00:02:27.387Z,96.77
2023-06-30T00:03:27.444Z,96.26
2023-06-30T00:04:27.362Z,96.47
2023-06-30T00:05:27.278Z,96.26
2023-06-30T00:06:27.262Z,96.36
2023-06-30T00:07:27.920Z,96.47
2023-06-30T00:08:27.242Z,96.36
2023-06-30T00:09:27.196Z,96.42
2023-06-30T00:10:27.218Z,96.47
2023-06-30T00:11:27.156Z,96.12
2023-06-30T00:12:27.160Z,96.01
2023-06-30T00:13:27.145Z,96.56
2023-06-30T00:14:27.870Z,96.32
2023-06-30T00:15:27.104Z,96.26
2023-06-30T00:16:27.188Z,96.36
2023-06-30T00:17:27.065Z,96.77
2023-06-30T00:18:27.018Z,96.36
2023-06-30T00:19:26.995Z,96.26
2023-06-30T00:20:26.966Z,96.56
2023-06-30T00:21:27.881Z,96.06
2023-06-30T00:22:26.959Z,96.87
2023-06-30T00:23:27.904Z,96.87
2023-06-30T00:24:26.879Z,96.47
2023-06-30T00:25:26.862Z,96.87
2023-06-30T00:26:26.883Z,96.97
2023-06-30T00:27:26.859Z,96.97
2023-06-30T00:28:26.795Z,96.77
2023-06-30T00:29:26.782Z,96.97
2023-06-30T00:30:26.758Z,96.97
2023-06-30T00:31:26.782Z,97.07
2023-06-30T00:32:26.746Z,96.62
2023-06-30T00:33:26.693Z,96.22
2023-06-30T00:34:26.672Z,96.72
2023-06-30T00:35:26.654Z,96.22
2023-06-30T00:36:26.662Z,96.12
2023-06-30T00:37:26.614Z,96.22
2023-06-30T00:38:26.711Z,95.81
2023-06-30T00:39:26.571Z,95.61
2023-06-30T00:40:26.586Z,96.22
2023-06-30T00:41:26.562Z,96.12
2023-06-30T00:42:26.552Z,96.32
2023-06-30T00:43:26.539Z,96.12
2023-06-30T00:44:26.470Z,95.72
2023-06-30T00:45:26.499Z,96.52
2023-06-30T00:46:26.551Z,95.81
2023-06-30T00:47:26.464Z,96.52
2023-06-30T00:48:26.989Z,96.52
2023-06-30T00:49:26.369Z,96.52
2023-06-30T00:50:26.371Z,96.72
2023-06-30T00:51:26.331Z,96.01
2023-06-30T00:52:26.303Z,96.12
2023-06-30T00:53:26.282Z,96.12
2023-06-30T00:54:26.318Z,95.92
2023-06-30T00:55:26.284Z,96.87
2023-06-30T00:56:26.224Z,96.16
2023-06-30T00:57:26.219Z,96.16
2023-06-30T00:58:26.172Z,96.06
2023-06-30T00:59:26.863Z,95.96
2023-06-30T01:00:27.142Z,95.76
2023-06-30T01:01:26.195Z,95.61
2023-06-30T01:02:26.113Z,95.61
2023-06-30T01:03:26.155Z,95.41
2023-06-30T01:04:26.185Z,95.31
2023-06-30T01:05:26.031Z,95.11
2023-06-30T01:06:26.053Z,94.81
2023-06-30T01:07:26.015Z,94.81
2023-06-30T01:08:26.003Z,95.31
2023-06-30T01:09:26.015Z,95.11
2023-06-30T01:10:25.931Z,94.81
2023-06-30T01:11:25.907Z,94.71
2023-06-30T01:12:25.892Z,95.01
2023-06-30T01:13:25.897Z,94.71
2023-06-30T01:14:25.858Z,94.60
2023-06-30T01:15:25.825Z,94.81
2023-06-30T01:16:25.881Z,94.81
2023-06-30T01:17:25.851Z,94.56
2023-06-30T01:18:25.792Z,94.81
2023-06-30T01:19:25.750Z,94.71
2023-06-30T01:20:25.716Z,94.71
2023-06-30T01:21:25.707Z,94.71
2023-06-30T01:22:25.725Z,95.11
2023-06-30T01:23:25.683Z,95.11
2023-06-30T01:24:25.658Z,94.81
2023-06-30T01:25:25.615Z,94.81
2023-06-30T01:26:25.642Z,95.31
2023-06-30T01:27:25.626Z,95.31
2023-06-30T01:28:25.574Z,94.91
2023-06-30T01:29:25.539Z,95.21
2023-06-30T01:30:25.579Z,95.41
2023-06-30T01:31:25.549Z,94.81
2023-06-30T01:32:25.576Z,95.21
2023-06-30T01:33:25.456Z,95.41
2023-06-30T01:34:25.429Z,95.11
2023-06-30T01:35:25.421Z,95.41
2023-06-30T01:36:26.366Z,95.21
2023-06-30T01:37:25.414Z,95.51
2023-06-30T01:38:25.348Z,95.41
2023-06-30T01:39:25.335Z,95.81
2023-06-30T01:40:25.309Z,95.51
2023-06-30T01:41:25.318Z,95.92
2023-06-30T01:42:25.275Z,95.51
2023-06-30T01:43:25.252Z,95.86
2023-06-30T01:44:25.224Z,95.81
2023-06-30T01:45:25.207Z,96.12
2023-06-30T01:46:25.237Z,96.56
2023-06-30T01:47:25.200Z,95.96
2023-06-30T01:48:25.141Z,95.86
2023-06-30T01:49:25.118Z,95.96
2023-06-30T01:50:25.130Z,95.96
2023-06-30T01:51:25.122Z,95.66
2023-06-30T01:52:25.061Z,96.26
2023-06-30T01:53:25.032Z,96.22
2023-06-30T01:54:25.021Z,96.77
2023-06-30T01:55:25.033Z,95.41
2023-06-30T01:56:24.974Z,95.66
2023-06-30T01:57:24.950Z,96.36
2023-06-30T01:58:24.934Z,96.72
2023-06-30T01:59:24.914Z,95.81
2023-06-30T02:00:24.929Z,96.22
2023-06-30T02:01:24.933Z,95.61
2023-06-30T02:02:24.931Z,95.66
2023-06-30T02:03:24.882Z,95.41
2023-06-30T02:04:24.839Z,95.51
2023-06-30T02:05:24.827Z,95.61
2023-06-30T02:06:24.767Z,95.92
2023-06-30T02:07:24.821Z,95.61
2023-06-30T02:08:24.739Z,95.96
2023-06-30T02:09:34.541Z,96.77
2023-06-30T02:10:26.869Z,96.56
2023-06-30T02:11:24.672Z,95.96
2023-06-30T02:12:24.656Z,96.16
2023-06-30T02:13:24.636Z,96.87
2023-06-30T02:14:24.648Z,97.27
2023-06-30T02:15:24.597Z,96.87
2023-06-30T02:16:24.654Z,97.03
2023-06-30T02:17:24.573Z,97.83
2023-06-30T02:18:24.561Z,97.27
2023-06-30T02:19:25.401Z,98.48
2023-06-30T02:20:24.490Z,97.88
2023-06-30T02:21:24.468Z,98.28
2023-06-30T02:22:24.459Z,97.98
2023-06-30T02:23:24.484Z,98.18
2023-06-30T02:24:24.406Z,98.68
2023-06-30T02:25:24.393Z,98.88
2023-06-30T02:26:24.373Z,98.88
2023-06-30T02:27:24.353Z,99.08
2023-06-30T02:28:24.356Z,98.68
2023-06-30T02:29:24.301Z,99.29
2023-06-30T02:30:24.282Z,99.19
2023-06-30T02:31:24.323Z,99.24
2023-06-30T02:32:24.294Z,99.69
2023-06-30T02:33:24.252Z,99.54
2023-06-30T02:34:24.199Z,99.64
2023-06-30T02:35:24.249Z,99.49
2023-06-30T02:36:24.156Z,99.99
2023-06-30T02:37:24.185Z,99.44
2023-06-30T02:38:24.121Z,99.64
2023-06-30T02:39:24.091Z,99.99
2023-06-30T02:40:24.071Z,99.84
2023-06-30T02:41:24.053Z,99.99
2023-06-30T02:42:24.060Z,99.99
2023-06-30T02:43:24.012Z,99.94
2023-06-30T02:44:24.005Z,99.99
2023-06-30T02:45:23.976Z,99.84
2023-06-30T02:46:23.982Z,99.99
2023-06-30T02:47:23.978Z,99.44
2023-06-30T02:48:24.882Z,99.13
2023-06-30T02:49:23.888Z,99.84
2023-06-30T02:50:23.876Z,99.99
2023-06-30T02:51:23.875Z,99.44
2023-06-30T02:52:23.827Z,99.99
2023-06-30T02:53:23.812Z,99.99
2023-06-30T02:54:23.788Z,99.99
2023-06-30T02:55:23.761Z,99.99
2023-06-30T02:56:23.789Z,99.99
2023-06-30T02:57:23.714Z,99.94
2023-06-30T02:58:23.708Z,99.74
2023-06-30T02:59:23.674Z,99.44
2023-06-30T03:00:23.678Z,99.64
2023-06-30T03:01:23.795Z,99.44
2023-06-30T03:02:24.540Z,99.84
2023-06-30T03:03:23.636Z,99.44
2023-06-30T03:04:23.561Z,99.99
2023-06-30T03:05:23.569Z,99.99
2023-06-30T03:06:23.513Z,99.99
2023-06-30T03:07:23.530Z,99.99
2023-06-30T03:08:23.481Z,99.99
2023-06-30T03:09:24.343Z,99.99
2023-06-30T03:10:23.471Z,99.99
2023-06-30T03:11:23.413Z,99.99
2023-06-30T03:12:23.392Z,99.99
2023-06-30T03:13:23.373Z,99.99
2023-06-30T03:14:23.375Z,99.99
2023-06-30T03:15:23.361Z,99.99
2023-06-30T03:16:23.312Z,99.99
2023-06-30T03:17:23.311Z,99.99
2023-06-30T03:18:23.264Z,99.99
2023-06-30T03:19:23.277Z,99.99
2023-06-30T03:20:23.221Z,99.99
2023-06-30T03:21:23.195Z,99.99
2023-06-30T03:22:23.180Z,99.99
2023-06-30T03:23:23.156Z,99.99
2023-06-30T03:24:23.158Z,99.99
2023-06-30T03:25:23.114Z,99.99
2023-06-30T03:26:23.087Z,99.99
2023-06-30T03:27:23.076Z,99.99
2023-06-30T03:28:23.081Z,99.99
2023-06-30T03:29:23.068Z,99.99
2023-06-30T03:30:23.020Z,99.99
2023-06-30T03:31:23.036Z,99.99
2023-06-30T03:32:23.031Z,99.99
2023-06-30T03:33:22.981Z,99.99
2023-06-30T03:34:22.919Z,99.99
2023-06-30T03:35:22.905Z,99.99
2023-06-30T03:36:22.892Z,99.99
2023-06-30T03:37:22.861Z,99.99
2023-06-30T03:38:22.862Z,99.99
2023-06-30T03:39:22.817Z,99.99
2023-06-30T03:40:22.794Z,99.99
2023-06-30T03:41:22.770Z,99.99
2023-06-30T03:42:22.778Z,99.99
2023-06-30T03:43:22.761Z,99.99
2023-06-30T03:44:22.715Z,99.99
2023-06-30T03:45:22.707Z,99.99
2023-06-30T03:46:22.701Z,99.99
2023-06-30T03:47:22.693Z,99.99
2023-06-30T03:48:22.628Z,99.99
2023-06-30T03:49:22.598Z,99.99
2023-06-30T03:50:22.593Z,99.99
2023-06-30T03:51:22.604Z,99.99
2023-06-30T03:52:22.566Z,99.99
2023-06-30T03:53:22.516Z,99.99
2023-06-30T03:54:22.493Z,99.99
2023-06-30T03:55:22.477Z,99.99
2023-06-30T03:56:22.518Z,99.99
2023-06-30T03:57:22.432Z,99.99
2023-06-30T03:58:22.413Z,99.99
2023-06-30T03:59:22.389Z,99.99
2023-06-30T04:00:22.366Z,99.99
2023-06-30T04:01:22.368Z,99.99
2023-06-30T04:02:22.386Z,99.99
2023-06-30T04:03:24.195Z,99.99
2023-06-30T04:04:22.350Z,99.99
2023-06-30T04:05:22.281Z,99.99
2023-06-30T04:06:22.262Z,99.99
2023-06-30T04:07:22.322Z,99.99
2023-06-30T04:08:22.422Z,99.99
2023-06-30T04:09:22.182Z,99.99
2023-06-30T04:10:22.210Z,99.99
2023-06-30T04:11:22.134Z,99.99
2023-06-30T04:12:22.111Z,99.99
2023-06-30T04:13:22.097Z,99.99
2023-06-30T04:14:22.063Z,99.99
2023-06-30T04:15:22.090Z,99.99
2023-06-30T04:16:22.115Z,99.99
2023-06-30T04:17:22.073Z,99.99
2023-06-30T04:18:21.982Z,99.99
2023-06-30T04:19:21.988Z,99.99
2023-06-30T04:20:21.977Z,99.99
2023-06-30T04:21:21.921Z,99.99
2023-06-30T04:22:21.901Z,99.99
2023-06-30T04:23:21.879Z,99.99
2023-06-30T04:24:21.893Z,99.99
2023-06-30T04:25:21.835Z,99.99
2023-06-30T04:26:21.821Z,99.99
2023-06-30T04:27:21.792Z,99.99
2023-06-30T04:28:21.770Z,99.99
2023-06-30T04:29:21.782Z,99.99
2023-06-30T04:30:21.736Z,99.99
2023-06-30T04:31:21.733Z,99.99
2023-06-30T04:32:21.816Z,99.99
2023-06-30T04:33:21.705Z,99.99
2023-06-30T04:34:21.678Z,99.99
2023-06-30T04:35:21.669Z,99.99
2023-06-30T04:36:21.618Z,99.99
2023-06-30T04:37:21.593Z,99.99
2023-06-30T04:38:22.949Z,99.99
2023-06-30T04:39:21.543Z,99.99
2023-06-30T04:40:21.534Z,99.99
2023-06-30T04:41:21.496Z,99.99
2023-06-30T04:42:22.489Z,99.99
2023-06-30T04:43:21.494Z,99.99
2023-06-30T04:44:21.454Z,99.99
2023-06-30T04:45:21.421Z,99.99
2023-06-30T04:46:21.474Z,99.99
2023-06-30T04:47:21.406Z,99.99
2023-06-30T04:48:21.385Z,99.99
2023-06-30T04:49:21.337Z,99.99
2023-06-30T04:50:21.318Z,99.99
2023-06-30T04:51:21.288Z,99.99
2023-06-30T04:52:21.358Z,99.99
2023-06-30T04:53:21.248Z,99.99
2023-06-30T04:54:21.281Z,99.99
2023-06-30T04:55:21.209Z,99.99
2023-06-30T04:56:21.201Z,99.99
2023-06-30T04:57:21.194Z,99.99
2023-06-30T04:58:21.150Z,99.99
2023-06-30T04:59:21.126Z,99.99
2023-06-30T05:00:21.103Z,99.99
2023-06-30T05:01:21.148Z,99.99
2023-06-30T05:02:21.096Z,99.99
2023-06-30T05:03:21.036Z,99.99
2023-06-30T05:04:22.021Z,99.99
2023-06-30T05:05:21.001Z,99.99
2023-06-30T05:06:21.005Z,99.99
2023-06-30T05:07:20.993Z,99.99
2023-06-30T05:08:20.924Z,99.99
2023-06-30T05:09:20.909Z,99.99
2023-06-30T05:10:20.880Z,99.99
2023-06-30T05:11:20.893Z,99.99
2023-06-30T05:12:20.842Z,99.99
2023-06-30T05:13:20.825Z,99.99
2023-06-30T05:14:20.802Z,99.99
2023-06-30T05:15:20.814Z,99.99
2023-06-30T05:16:20.883Z,99.99
2023-06-30T05:17:20.861Z,99.99
2023-06-30T05:18:20.738Z,99.99
2023-06-30T05:19:20.697Z,99.99
2023-06-30T05:20:20.717Z,99.99
2023-06-30T05:21:20.654Z,99.99
2023-06-30T05:22:20.636Z,99.99
2023-06-30T05:23:20.611Z,99.99
2023-06-30T05:24:20.617Z,99.99
2023-06-30T05:25:20.601Z,99.99
2023-06-30T05:26:20.547Z,99.99
2023-06-30T05:27:20.523Z,99.99
2023-06-30T05:28:20.507Z,99.99
2023-06-30T05:29:20.507Z,99.99
2023-06-30T05:30:20.494Z,99.99
2023-06-30T05:31:20.466Z,99.99
2023-06-30T05:32:20.490Z,99.99
2023-06-30T05:33:20.398Z,99.99
2023-06-30T05:34:20.428Z,99.99
2023-06-30T05:35:20.375Z,99.99
2023-06-30T05:36:20.329Z,99.99
2023-06-30T05:37:20.305Z,99.99
2023-06-30T05:38:20.281Z,99.99
2023-06-30T05:39:20.297Z,99.99
2023-06-30T05:40:20.242Z,99.99
2023-06-30T05:41:20.224Z,99.99
2023-06-30T05:42:20.200Z,99.99
2023-06-30T05:43:20.219Z,99.99
2023-06-30T05:44:20.257Z,99.99
2023-06-30T05:45:20.154Z,99.99
2023-06-30T05:46:20.126Z,99.99
2023-06-30T05:47:20.117Z,99.99
2023-06-30T05:48:20.097Z,99.99
2023-06-30T05:49:20.051Z,99.99
2023-06-30T05:50:20.026Z,99.99
2023-06-30T05:51:19.998Z,99.99
2023-06-30T05:52:19.992Z,99.99
2023-06-30T05:53:19.986Z,99.99
2023-06-30T05:54:19.933Z,99.99
2023-06-30T05:55:19.912Z,99.99
2023-06-30T05:56:19.903Z,99.99
2023-06-30T05:57:19.905Z,99.99
2023-06-30T05:58:19.879Z,99.99
2023-06-30T05:59:19.827Z,99.99
2023-06-30T06:00:19.805Z,99.99
2023-06-30T06:01:19.783Z,99.99
2023-06-30T06:02:19.824Z,99.99
2023-06-30T06:03:20.000Z,99.99
2023-06-30T06:04:19.834Z,99.99
2023-06-30T06:05:19.745Z,99.99
2023-06-30T06:06:19.676Z,99.99
2023-06-30T06:07:19.747Z,99.99
2023-06-30T06:08:19.630Z,99.99
2023-06-30T06:09:19.688Z,99.99
2023-06-30T06:10:19.588Z,99.99
2023-06-30T06:11:19.624Z,99.99
2023-06-30T06:12:19.580Z,99.99
2023-06-30T06:13:19.555Z,99.99
2023-06-30T06:14:19.500Z,99.99
2023-06-30T06:15:19.478Z,99.99
2023-06-30T06:16:19.511Z,99.99
2023-06-30T06:17:19.444Z,99.99
2023-06-30T06:18:19.408Z,99.99
2023-06-30T06:19:19.390Z,99.99
2023-06-30T06:20:19.374Z,99.99
2023-06-30T06:21:19.380Z,99.99
2023-06-30T06:22:19.319Z,99.99
2023-06-30T06:23:19.303Z,99.99
2023-06-30T06:24:19.292Z,99.99
2023-06-30T06:25:19.292Z,99.99
2023-06-30T06:26:19.281Z,99.99
2023-06-30T06:27:19.223Z,99.99
2023-06-30T06:28:19.210Z,99.99
2023-06-30T06:29:19.181Z,99.99
2023-06-30T06:30:19.245Z,99.99
2023-06-30T06:31:19.273Z,99.99
2023-06-30T06:32:20.568Z,99.99
2023-06-30T06:33:19.196Z,99.99
2023-06-30T06:34:19.253Z,99.99
2023-06-30T06:35:19.074Z,99.99
2023-06-30T06:36:19.044Z,99.99
2023-06-30T06:37:19.014Z,99.99
2023-06-30T06:38:18.988Z,99.99
2023-06-30T06:39:18.995Z,99.99
2023-06-30T06:40:18.966Z,99.99
2023-06-30T06:41:18.909Z,99.99
2023-06-30T06:42:18.887Z,99.99
2023-06-30T06:43:18.895Z,99.99
2023-06-30T06:44:18.898Z,99.99
2023-06-30T06:45:18.825Z,99.99
2023-06-30T06:46:18.867Z,99.99
2023-06-30T06:47:18.824Z,99.99
2023-06-30T06:48:18.778Z,99.99
2023-06-30T06:49:18.777Z,99.99
2023-06-30T06:50:18.718Z,99.99
2023-06-30T06:51:18.708Z,99.99
2023-06-30T06:52:18.677Z,99.99
2023-06-30T06:53:18.674Z,99.99
2023-06-30T06:54:18.654Z,99.99
2023-06-30T06:55:18.603Z,99.99
2023-06-30T06:56:18.585Z,99.99
2023-06-30T06:57:18.560Z,99.99
2023-06-30T06:58:18.572Z,99.99
2023-06-30T06:59:18.517Z,99.99
2023-06-30T07:00:18.511Z,99.99
2023-06-30T07:01:18.482Z,99.99
2023-06-30T07:02:18.473Z,99.99
2023-06-30T07:03:18.486Z,99.99
2023-06-30T07:04:18.412Z,99.99
2023-06-30T07:05:18.390Z,99.99
2023-06-30T07:06:18.365Z,99.99
2023-06-30T07:07:18.392Z,99.99
2023-06-30T07:08:18.352Z,99.99
2023-06-30T07:09:18.296Z,99.99
2023-06-30T07:10:18.275Z,99.99
2023-06-30T07:11:18.308Z,99.99
2023-06-30T07:12:18.370Z,99.99
2023-06-30T07:13:18.208Z,99.99
2023-06-30T07:14:18.191Z,99.99
2023-06-30T07:15:18.166Z,99.99
2023-06-30T07:16:18.181Z,99.99
2023-06-30T07:17:18.156Z,99.99
2023-06-30T07:18:18.200Z,99.99
2023-06-30T07:19:18.087Z,99.99
2023-06-30T07:20:18.056Z,99.99
2023-06-30T07:21:18.063Z,99.99
2023-06-30T07:22:18.041Z,99.99
2023-06-30T07:23:17.996Z,99.99
2023-06-30T07:24:17.968Z,99.99
2023-06-30T07:25:17.946Z,99.99
2023-06-30T07:26:17.952Z,99.99
2023-06-30T07:27:17.902Z,99.99
2023-06-30T07:28:17.886Z,99.99
2023-06-30T07:29:17.851Z,99.99
2023-06-30T07:30:17.827Z,99.99
2023-06-30T07:31:17.937Z,99.99
2023-06-30T07:32:17.792Z,99.99
2023-06-30T07:33:17.762Z,99.99
2023-06-30T07:34:17.745Z,99.99
2023-06-30T07:35:17.744Z,99.99
2023-06-30T07:36:17.719Z,99.99
2023-06-30T07:37:17.680Z,99.99
2023-06-30T07:38:17.648Z,99.99
2023-06-30T07:39:17.637Z,99.99
2023-06-30T07:40:18.073Z,99.99
2023-06-30T07:41:17.659Z,99.99
2023-06-30T07:42:17.569Z,99.99
2023-06-30T07:43:17.556Z,99.99
2023-06-30T07:44:17.524Z,99.99
2023-06-30T07:45:17.522Z,99.99
2023-06-30T07:46:17.498Z,99.99
2023-06-30T07:47:18.446Z,99.99
2023-06-30T07:48:17.506Z,99.99
2023-06-30T07:49:17.458Z,99.99
2023-06-30T07:50:17.429Z,99.99
2023-06-30T07:51:17.358Z,99.99
2023-06-30T07:52:17.350Z,99.99
2023-06-30T07:53:17.318Z,99.99
2023-06-30T07:54:17.325Z,99.99
2023-06-30T07:55:17.453Z,99.99
2023-06-30T07:56:17.388Z,99.99
2023-06-30T07:57:18.851Z,99.99
2023-06-30T07:58:18.310Z,99.99
2023-06-30T07:59:17.222Z,99.99
2023-06-30T08:00:17.172Z,99.99
2023-06-30T08:01:17.140Z,99.99
2023-06-30T08:02:17.117Z,99.66
2023-06-30T08:03:17.252Z,99.81
2023-06-30T08:04:17.242Z,99.81
2023-06-30T08:05:17.233Z,99.99
2023-06-30T08:06:17.159Z,99.99
2023-06-30T08:07:17.036Z,99.99
2023-06-30T08:08:17.014Z,99.99
2023-06-30T08:09:16.973Z,99.99
2023-06-30T08:10:16.941Z,99.99
2023-06-30T08:11:16.922Z,99.99
2023-06-30T08:12:16.900Z,99.99
2023-06-30T08:13:16.904Z,99.81
2023-06-30T08:14:16.862Z,99.96
2023-06-30T08:15:16.862Z,99.99
2023-06-30T08:16:16.847Z,99.99
2023-06-30T08:17:26.615Z,99.99
2023-06-30T08:18:33.338Z,99.99
2023-06-30T08:19:44.826Z,99.99
2023-06-30T08:20:17.817Z,99.99
2023-06-30T08:21:16.707Z,99.99
2023-06-30T08:22:16.711Z,99.99
2023-06-30T08:23:16.687Z,99.99
2023-06-30T08:24:16.631Z,99.99
2023-06-30T08:25:16.623Z,99.99
2023-06-30T08:26:16.587Z,99.99
2023-06-30T08:27:16.603Z,99.99
2023-06-30T08:28:16.544Z,99.99
2023-06-30T08:29:16.517Z,99.99
2023-06-30T08:30:16.567Z,99.99
2023-06-30T08:31:16.581Z,99.99
2023-06-30T08:32:16.493Z,99.99
2023-06-30T08:33:30.551Z,99.99
2023-06-30T08:34:17.412Z,99.99
2023-06-30T08:35:16.409Z,99.99
2023-06-30T08:36:16.397Z,99.99
2023-06-30T08:37:16.348Z,99.99
2023-06-30T08:38:16.326Z,99.99
2023-06-30T08:39:16.305Z,99.99
2023-06-30T08:40:16.281Z,99.99
2023-06-30T08:41:16.298Z,99.99
2023-06-30T08:42:16.236Z,99.99
2023-06-30T08:43:18.290Z,99.99
2023-06-30T08:44:17.193Z,99.99
2023-06-30T08:45:16.198Z,99.87
2023-06-30T08:46:16.196Z,99.21
2023-06-30T08:47:16.125Z,99.36
2023-06-30T08:48:16.110Z,99.77
2023-06-30T08:49:16.088Z,99.77
2023-06-30T08:50:16.106Z,99.97
2023-06-30T08:51:17.378Z,99.46
2023-06-30T08:52:17.020Z,99.51
2023-06-30T08:53:15.995Z,99.99
2023-06-30T08:54:15.977Z,99.97
2023-06-30T08:55:15.990Z,99.51
2023-06-30T08:56:15.941Z,99.71
2023-06-30T08:57:15.913Z,99.99
2023-06-30T08:58:25.263Z,99.81
2023-06-30T08:59:17.897Z,99.81
2023-06-30T09:00:15.902Z,99.91
2023-06-30T09:01:15.915Z,99.61
2023-06-30T09:02:15.876Z,99.81
2023-06-30T09:03:15.877Z,99.99
2023-06-30T09:04:15.820Z,99.99
2023-06-30T09:05:15.780Z,99.99
2023-06-30T09:06:15.722Z,99.99
2023-06-30T09:07:15.703Z,99.99
2023-06-30T09:08:15.690Z,99.99
2023-06-30T09:09:15.681Z,99.99
2023-06-30T09:10:15.638Z,99.99
2023-06-30T09:11:15.609Z,99.99
2023-06-30T09:12:15.587Z,99.99
2023-06-30T09:13:15.595Z,99.99
2023-06-30T09:14:15.572Z,99.99
2023-06-30T09:15:15.529Z,99.99
2023-06-30T09:16:18.678Z,99.99
2023-06-30T09:17:15.481Z,99.81
2023-06-30T09:18:15.489Z,99.99
2023-06-30T09:19:15.436Z,99.99
2023-06-30T09:20:15.420Z,99.99
2023-06-30T09:21:15.395Z,99.99
2023-06-30T09:22:54.314Z,99.99
2023-06-30T09:23:16.379Z,99.99
2023-06-30T09:24:15.348Z,99.99
2023-06-30T09:25:16.254Z,99.99
2023-06-30T09:26:15.340Z,99.56
2023-06-30T09:27:15.347Z,99.99
2023-06-30T09:28:15.246Z,99.99
2023-06-30T09:29:15.213Z,99.99
2023-06-30T09:30:15.194Z,99.99
2023-06-30T09:31:15.192Z,99.99
2023-06-30T09:32:15.315Z,99.99
2023-06-30T09:33:15.128Z,99.99
2023-06-30T09:34:15.107Z,99.99
2023-06-30T09:35:15.087Z,99.97
2023-06-30T09:36:15.112Z,99.97
2023-06-30T09:37:15.074Z,99.82
2023-06-30T09:38:15.022Z,99.82
2023-06-30T09:39:15.001Z,99.57
2023-06-30T09:40:15.000Z,98.00
2023-06-30T09:41:14.975Z,98.00
2023-06-30T09:42:14.937Z,97.64
2023-06-30T09:43:14.910Z,98.30
2023-06-30T09:44:14.888Z,97.94
2023-06-30T09:45:14.868Z,96.98
2023-06-30T09:46:14.910Z,95.92
2023-06-30T09:47:14.856Z,95.21
2023-06-30T09:48:14.815Z,95.92
2023-06-30T09:49:14.782Z,96.07
2023-06-30T09:50:14.835Z,97.08
2023-06-30T09:51:14.779Z,96.82
2023-06-30T09:52:14.750Z,97.02
2023-06-30T09:53:16.684Z,97.43
2023-06-30T09:54:14.673Z,96.98
2023-06-30T09:55:14.683Z,95.76
2023-06-30T09:56:14.635Z,94.24
2023-06-30T09:57:14.609Z,94.04
2023-06-30T09:58:14.590Z,95.36
2023-06-30T09:59:14.568Z,94.86
2023-06-30T10:00:29.606Z,94.82
2023-06-30T10:01:15.562Z,92.96
2023-06-30T10:02:14.518Z,91.85
2023-06-30T10:03:14.569Z,92.14
2023-06-30T10:04:15.218Z,91.03
2023-06-30T10:05:14.474Z,90.94
2023-06-30T10:06:14.416Z,88.26
2023-06-30T10:07:14.473Z,89.48
2023-06-30T10:08:14.374Z,89.84
2023-06-30T10:09:14.378Z,88.87
2023-06-30T10:10:14.335Z,89.23
2023-06-30T10:11:14.432Z,88.53
2023-06-30T10:12:14.299Z,88.43
2023-06-30T10:13:14.277Z,90.45
2023-06-30T10:14:14.283Z,90.14
2023-06-30T10:15:14.240Z,89.94
2023-06-30T10:16:14.214Z,89.90
2023-06-30T10:17:14.207Z,90.41
2023-06-30T10:18:14.285Z,89.50
2023-06-30T10:19:14.186Z,89.50
2023-06-30T10:20:14.143Z,90.06
2023-06-30T10:21:14.109Z,89.25
2023-06-30T10:22:14.091Z,89.35
2023-06-30T10:23:14.107Z,89.31
2023-06-30T10:24:14.051Z,89.81
2023-06-30T10:25:14.033Z,88.96
2023-06-30T10:26:14.035Z,89.63
2023-06-30T10:27:13.991Z,89.12
2023-06-30T10:28:13.997Z,88.42
2023-06-30T10:29:13.955Z,89.18
2023-06-30T10:30:13.932Z,89.53
2023-06-30T10:31:13.914Z,87.62
2023-06-30T10:32:13.920Z,88.52
2023-06-30T10:33:14.093Z,89.03
2023-06-30T10:34:13.849Z,88.96
2023-06-30T10:35:13.829Z,89.31
2023-06-30T10:36:13.811Z,87.84
2023-06-30T10:37:13.825Z,89.45
2023-06-30T10:38:13.772Z,89.79
2023-06-30T10:39:13.757Z,89.13
2023-06-30T10:40:13.750Z,90.70
2023-06-30T10:41:13.718Z,91.05
2023-06-30T10:42:13.733Z,90.81
2023-06-30T10:43:13.677Z,90.45
2023-06-30T10:44:13.665Z,88.87
2023-06-30T10:45:13.646Z,89.68
2023-06-30T10:46:13.651Z,90.08
2023-06-30T10:47:13.656Z,89.83
2023-06-30T10:48:13.596Z,89.52
2023-06-30T10:49:13.562Z,90.12
2023-06-30T10:50:13.542Z,90.12
2023-06-30T10:51:13.584Z,90.17
2023-06-30T10:52:13.504Z,90.07
2023-06-30T10:53:13.533Z,90.27
2023-06-30T10:54:13.465Z,89.87
2023-06-30T10:55:13.444Z,89.81
2023-06-30T10:56:13.455Z,90.21
2023-06-30T10:57:13.410Z,89.91
2023-06-30T10:58:13.383Z,91.18
2023-06-30T10:59:13.363Z,91.78
2023-06-30T11:00:13.409Z,90.67
2023-06-30T11:01:13.352Z,91.28
2023-06-30T11:02:13.303Z,91.08
2023-06-30T11:03:13.387Z,92.69
2023-06-30T11:04:13.406Z,93.30
2023-06-30T11:05:13.292Z,91.64
2023-06-30T11:06:13.218Z,91.14
2023-06-30T11:07:13.224Z,91.74
2023-06-30T11:08:13.172Z,92.35
2023-06-30T11:09:13.159Z,92.55
2023-06-30T11:10:13.196Z,91.85
2023-06-30T11:11:13.111Z,92.30
2023-06-30T11:12:13.092Z,92.30
2023-06-30T11:13:13.098Z,91.30
2023-06-30T11:14:13.086Z,91.66
2023-06-30T11:15:13.060Z,90.79
2023-06-30T11:16:13.015Z,89.43
2023-06-30T11:17:12.992Z,91.46
2023-06-30T11:18:13.120Z,90.34
2023-06-30T11:19:13.088Z,90.00
2023-06-30T11:20:12.958Z,90.81
2023-06-30T11:21:12.925Z,90.41
2023-06-30T11:22:12.894Z,91.21
2023-06-30T11:23:12.874Z,89.55
2023-06-30T11:24:12.885Z,89.75
2023-06-30T11:25:12.839Z,89.55
2023-06-30T11:26:13.121Z,89.51
2023-06-30T11:27:12.799Z,90.11
2023-06-30T11:28:12.811Z,88.36
2023-06-30T11:29:12.815Z,86.85
2023-06-30T11:30:12.733Z,87.45
2023-06-30T11:31:12.790Z,87.62
2023-06-30T11:32:12.699Z,88.28
2023-06-30T11:33:12.710Z,87.73
2023-06-30T11:34:12.697Z,85.42
2023-06-30T11:35:12.642Z,85.88
2023-06-30T11:36:12.629Z,87.45
2023-06-30T11:37:12.610Z,83.69
2023-06-30T11:38:12.612Z,83.39
2023-06-30T11:39:12.571Z,84.49
2023-06-30T11:40:12.604Z,82.58
2023-06-30T11:41:12.526Z,83.09
2023-06-30T11:42:12.540Z,84.23
2023-06-30T11:43:12.504Z,83.63
2023-06-30T11:44:12.466Z,84.53
2023-06-30T11:45:12.447Z,83.39
2023-06-30T11:46:12.452Z,84.23
2023-06-30T11:47:12.505Z,85.24
2023-06-30T11:48:12.400Z,82.42
2023-06-30T11:49:12.372Z,83.03
2023-06-30T11:50:12.386Z,84.74
2023-06-30T11:51:12.334Z,82.86
2023-06-30T11:52:12.350Z,84.67
2023-06-30T11:53:12.304Z,85.14
2023-06-30T11:54:12.279Z,85.39
2023-06-30T11:55:12.324Z,82.89
2023-06-30T11:56:12.271Z,81.58
2023-06-30T11:57:12.259Z,81.27
2023-06-30T11:58:12.201Z,82.68
2023-06-30T11:59:12.187Z,83.03
2023-06-30T12:00:12.217Z,83.23
2023-06-30T12:01:12.180Z,84.37
2023-06-30T12:02:12.185Z,85.53
2023-06-30T12:03:12.190Z,85.38
2023-06-30T12:04:12.834Z,86.22
2023-06-30T12:05:12.079Z,84.31
2023-06-30T12:06:12.079Z,86.87
2023-06-30T12:07:12.040Z,86.06
2023-06-30T12:08:12.012Z,85.25
2023-06-30T12:09:11.993Z,84.59
2023-06-30T12:10:12.006Z,86.30
2023-06-30T12:11:11.989Z,88.52
2023-06-30T12:12:11.951Z,87.62
2023-06-30T12:13:11.922Z,88.42
2023-06-30T12:14:11.954Z,86.57
2023-06-30T12:15:11.923Z,85.36
2023-06-30T12:16:12.390Z,85.96
2023-06-30T12:17:12.379Z,85.46
2023-06-30T12:18:11.824Z,84.19
2023-06-30T12:19:11.824Z,84.45
2023-06-30T12:20:12.812Z,85.36
2023-06-30T12:21:11.784Z,85.36
2023-06-30T12:22:11.745Z,86.06
2023-06-30T12:23:11.725Z,86.57
2023-06-30T12:24:11.772Z,85.36
2023-06-30T12:25:11.717Z,86.16
2023-06-30T12:26:11.667Z,85.56
2023-06-30T12:27:11.646Z,85.96
2023-06-30T12:28:11.627Z,84.21
2023-06-30T12:29:11.651Z,85.31
2023-06-30T12:30:11.592Z,85.31
2023-06-30T12:31:11.614Z,86.38
2023-06-30T12:32:11.562Z,83.87
2023-06-30T12:33:11.562Z,83.93
2023-06-30T12:34:11.559Z,83.47
2023-06-30T12:35:11.500Z,84.29
2023-06-30T12:36:11.487Z,83.18
2023-06-30T12:37:11.462Z,83.04
2023-06-30T12:38:11.472Z,83.11
2023-06-30T12:39:11.425Z,83.37
2023-06-30T12:40:11.442Z,85.33
2023-06-30T12:41:11.441Z,81.42
2023-06-30T12:42:11.389Z,77.48
2023-06-30T12:43:11.383Z,79.43
2023-06-30T12:44:11.457Z,81.06
2023-06-30T12:45:11.316Z,78.42
2023-06-30T12:46:11.317Z,78.81
2023-06-30T12:47:11.314Z,78.81
2023-06-30T12:48:11.354Z,77.67
2023-06-30T12:49:11.241Z,80.24
2023-06-30T12:50:11.216Z,79.44
2023-06-30T12:51:11.194Z,77.54
2023-06-30T12:52:11.212Z,74.80